Time;durP1;ratioP1;P1;durP2;ratioP2;P2;SDS_P1;SDS_P2;PMS_P1;PMS_P2;Temp;Humidity;BMP_temperature;BMP_pressure;BME280_temperature;BME280_humidity;BME280_pressure;Samples;Min_cycle;Max_cycle;Signal;HPM_P1;HPM_P2
2022/08/17 00:02:14;;;;;;;6.00;4.85;;;;;;;21.44;62.36;95498.75;10324305;28;96998;-59
2022/08/17 00:07:29;;;;;;;6.35;4.93;;;;;;;21.36;61.10;95495.66;10336050;28;98592;-60
2022/08/17 00:12:40;;;;;;;6.85;5.45;;;;;;;21.25;62.42;95494.63;10333614;28;97817;-59
2022/08/17 00:17:47;;;;;;;6.40;5.27;;;;;;;21.21;62.23;95498.81;10321288;28;98832;-59
2022/08/17 00:23:01;;;;;;;;;;;;;;;21.13;61.76;95503.41;10335228;28;96859;-59
2022/08/17 00:28:04;;;;;;;7.38;5.50;;;;;;;21.07;62.40;95507.00;10332836;28;96784;-59
2022/08/17 00:33:10;;;;;;;9.80;6.73;;;;;;;21.05;64.29;95501.13;10329721;28;97331;-60
2022/08/17 00:38:20;;;;;;;9.20;6.65;;;;;;;21.00;64.77;95519.59;10331280;28;98508;-60
2022/08/17 00:43:29;;;;;;;8.07;6.28;;;;;;;20.88;65.59;95521.44;10326877;28;97967;-59
2022/08/17 00:48:33;;;;;;;9.82;6.57;;;;;;;20.86;66.59;95520.84;10323539;28;97361;-59
2022/08/17 00:53:50;;;;;;;6.77;5.93;;;;;;;20.88;65.57;95521.44;10321146;28;97936;-60
2022/08/17 00:58:55;;;;;;;9.52;6.28;;;;;;;20.84;66.14;95509.66;10323288;28;97555;-59
2022/08/17 01:03:58;;;;;;;8.60;5.72;;;;;;;20.87;66.17;95498.56;10324375;28;97671;-59
2022/08/17 01:09:04;;;;;;;8.57;5.90;;;;;;;20.73;66.29;95506.72;10325631;28;97864;-60
2022/08/17 01:14:07;;;;;;;9.18;6.10;;;;;;;20.69;65.02;95528.66;10320810;28;97349;-62
2022/08/17 01:19:16;;;;;;;8.32;6.03;;;;;;;20.69;66.53;95534.75;10326257;28;97606;-59
2022/08/17 01:24:20;;;;;;;6.88;6.18;;;;;;;20.70;65.86;95541.69;10317746;28;97284;-59
2022/08/17 01:29:24;;;;;;;6.15;5.43;;;;;;;20.69;66.59;95529.47;10318992;28;97053;-59
2022/08/17 01:34:27;;;;;;;9.73;6.00;;;;;;;20.69;66.04;95542.72;10325316;28;98781;-59
2022/08/17 01:39:55;;;;;;;8.70;5.95;;;;;;;20.64;65.79;95563.84;10321981;28;98431;-59
2022/08/17 01:45:04;;;;;;;8.55;5.60;;;;;;;20.61;64.92;95569.59;10326699;28;97249;-59
2022/08/17 01:50:09;;;;;;;7.00;5.50;;;;;;;20.58;65.79;95495.72;10329746;28;97300;-59
2022/08/17 01:55:16;;;;;;;8.10;5.90;;;;;;;20.51;66.60;95503.00;10314662;28;97298;-59
2022/08/17 02:00:19;;;;;;;6.72;5.25;;;;;;;20.37;65.55;95521.78;10316907;28;98107;-59
2022/08/17 02:05:22;;;;;;;8.68;6.20;;;;;;;20.29;66.43;95539.88;10330576;28;98939;-60
2022/08/17 02:10:26;;;;;;;8.52;6.07;;;;;;;20.21;67.68;95535.69;10331865;28;97286;-60
2022/08/17 02:15:35;;;;;;;8.10;6.35;;;;;;;20.16;67.74;95541.66;10326914;28;97299;-60
2022/08/17 02:20:38;;;;;;;9.75;6.15;;;;;;;20.11;66.92;95543.38;10325346;28;98938;-59
2022/08/17 02:25:47;;;;;;;9.13;5.93;;;;;;;20.09;67.70;95540.94;10327405;28;97649;-59
2022/08/17 02:30:50;;;;;;;9.32;6.28;;;;;;;19.99;67.93;95533.53;10336009;28;97625;-60
2022/08/17 02:36:07;;;;;;;10.37;6.00;;;;;;;19.80;67.43;95526.59;10332220;28;97348;-59
2022/08/17 02:41:12;;;;;;;8.68;6.30;;;;;;;19.64;69.25;95517.41;10330087;28;98454;-60
2022/08/17 02:46:14;;;;;;;;;;;;;;;19.49;67.93;95487.84;10326738;28;97169;-59
2022/08/17 02:51:18;;;;;;;8.70;6.35;;;;;;;19.25;69.57;95482.41;10324638;28;96870;-60
2022/08/17 02:56:22;;;;;;;9.27;7.07;;;;;;;19.06;70.22;95473.66;10328243;28;96900;-59
2022/08/17 03:01:26;;;;;;;11.60;8.20;;;;;;;18.91;71.00;95475.84;10328612;28;97294;-62
2022/08/17 03:06:30;;;;;;;11.43;8.70;;;;;;;18.87;71.57;95486.06;10339561;28;98871;-59
2022/08/17 03:11:34;;;;;;;12.53;10.00;;;;;;;18.97;72.36;95491.66;10324437;28;97667;-60
2022/08/17 03:16:37;;;;;;;9.50;8.30;;;;;;;19.02;71.93;95496.31;10331089;28;98482;-59
2022/08/17 03:21:40;;;;;;;10.98;8.68;;;;;;;18.91;72.23;95497.00;10336589;28;96997;-60
2022/08/17 03:26:45;;;;;;;9.60;8.45;;;;;;;18.76;72.55;95492.84;10322545;28;96757;-59
2022/08/17 03:31:48;;;;;;;10.18;8.27;;;;;;;18.66;72.51;95484.59;10334599;28;97169;-59
2022/08/17 03:36:51;;;;;;;9.95;7.97;;;;;;;18.48;72.99;95464.16;10313925;28;96867;-60
2022/08/17 03:42:01;;;;;;;9.38;8.23;;;;;;;18.40;73.85;95459.97;10328015;28;98573;-59
2022/08/17 03:57:47;;;;;;;10.02;8.45;;;;;;;18.22;74.35;95441.41;10322660;28;98363;-60
2022/08/17 04:02:50;;;;;;;8.95;7.97;;;;;;;18.21;73.81;95451.16;10321841;28;98855;-59
2022/08/17 04:07:53;;;;;;;11.40;8.93;;;;;;;18.23;74.09;95432.44;10330591;28;96866;-59
2022/08/17 04:12:58;;;;;;;9.85;8.52;;;;;;;18.18;74.29;95445.50;10327188;28;97442;-59
2022/08/17 04:18:00;;;;;;;11.30;9.30;;;;;;;18.09;74.36;95458.97;10318231;28;98330;-61
2022/08/17 04:23:08;;;;;;;11.55;9.20;;;;;;;18.02;74.43;95452.94;10326713;28;98190;-59
2022/08/17 04:28:12;;;;;;;9.95;9.02;;;;;;;17.97;74.93;95476.53;10323161;28;96773;-59
2022/08/17 04:33:20;;;;;;;12.30;9.10;;;;;;;17.90;74.91;95492.44;10323224;28;98009;-60
2022/08/17 04:38:25;;;;;;;12.90;9.82;;;;;;;17.82;75.06;95494.47;10316667;28;96763;-60
2022/08/17 04:43:31;;;;;;;10.23;8.43;;;;;;;17.73;75.49;95507.94;10324357;28;99001;-60
2022/08/17 04:48:36;;;;;;;13.27;8.90;;;;;;;17.71;75.77;95504.69;10327008;28;96813;-59
2022/08/17 04:53:41;;;;;;;9.70;7.85;;;;;;;17.65;75.44;95524.03;10323395;28;97654;-59
2022/08/17 04:58:48;;;;;;;13.13;8.90;;;;;;;17.66;75.37;95520.34;10334662;28;97833;-59
2022/08/17 05:03:52;;;;;;;10.75;8.88;;;;;;;17.71;75.66;95546.94;10327833;28;97114;-59
2022/08/17 05:08:56;;;;;;;10.33;9.00;;;;;;;17.86;75.43;95564.41;10334010;28;97396;-60
2022/08/17 05:14:00;;;;;;;11.10;8.93;;;;;;;18.03;75.20;95565.56;10328108;28;97924;-60
2022/08/17 05:19:03;;;;;;;10.70;8.95;;;;;;;18.19;75.97;95574.81;10327941;28;97087;-59
2022/08/17 05:24:06;;;;;;;11.40;8.55;;;;;;;18.35;75.03;95570.06;10318408;28;96781;-59
2022/08/17 05:29:30;;;;;;;10.48;8.32;;;;;;;18.39;74.78;95585.28;10322368;28;96733;-62
2022/08/17 05:34:37;;;;;;;10.48;8.55;;;;;;;18.48;75.85;95591.13;10324556;28;98467;-61
2022/08/17 05:39:40;;;;;;;13.68;8.93;;;;;;;18.46;75.80;95590.53;10322334;28;98433;-59
2022/08/17 05:44:44;;;;;;;9.07;8.15;;;;;;;18.60;74.81;95607.97;10323051;28;97026;-60
2022/08/17 05:49:47;;;;;;;9.27;7.68;;;;;;;18.65;74.74;95621.34;10330642;28;98323;-59
2022/08/17 05:55:02;;;;;;;10.07;8.38;;;;;;;18.84;75.25;95634.66;10316889;28;98823;-59
2022/08/17 06:00:15;;;;;;;9.10;8.18;;;;;;;19.06;75.32;95628.00;10313479;28;98419;-60
2022/08/17 06:05:37;;;;;;;11.32;7.95;;;;;;;19.24;73.75;95624.59;10317880;28;97493;-60
2022/08/17 06:10:46;;;;;;;10.35;7.45;;;;;;;19.31;74.20;95623.72;10325989;28;97238;-59
2022/08/17 06:15:58;;;;;;;10.18;7.70;;;;;;;19.51;75.17;95634.94;10318286;28;99121;-63
2022/08/17 06:21:05;;;;;;;8.82;7.65;;;;;;;19.70;74.40;95640.28;10320499;28;97787;-59
2022/08/17 06:26:12;;;;;;;10.93;7.63;;;;;;;19.76;72.95;95628.78;10318013;28;96911;-60
2022/08/17 06:31:21;;;;;;;8.30;7.50;;;;;;;19.79;73.42;95618.53;10327677;28;96975;-59
2022/08/17 06:36:39;;;;;;;10.20;7.57;;;;;;;19.80;74.23;95591.03;10329552;28;96895;-59
2022/08/17 06:41:50;;;;;;;9.68;7.85;;;;;;;19.94;73.48;95607.63;10329505;28;96862;-60
2022/08/17 06:47:03;;;;;;;12.15;8.60;;;;;;;20.09;74.19;95609.88;10329867;28;96897;-59
2022/08/17 06:52:14;;;;;;;9.10;7.40;;;;;;;20.24;74.19;95614.78;10335550;28;96787;-60
2022/08/17 06:57:42;;;;;;;10.15;7.43;;;;;;;20.29;74.56;95622.88;10336536;28;96886;-59
2022/08/17 07:02:53;;;;;;;8.57;7.47;;;;;;;20.42;73.84;95618.44;10336007;28;96843;-59
2022/08/17 07:08:03;;;;;;;11.60;8.48;;;;;;;20.56;72.92;95598.66;10335999;28;98060;-59
2022/08/17 07:13:21;;;;;;;8.32;7.53;;;;;;;20.74;73.89;95616.41;10336000;28;96882;-59
2022/08/17 07:18:31;;;;;;;9.27;7.57;;;;;;;20.93;73.05;95619.78;10335417;28;96898;-59
2022/08/17 07:23:49;;;;;;;9.23;7.88;;;;;;;21.01;72.41;95619.44;10335133;28;96818;-60
2022/08/17 07:28:54;;;;;;;9.15;7.55;;;;;;;21.17;72.83;95612.63;10336268;28;96628;-60
2022/08/17 07:34:05;;;;;;;8.18;7.35;;;;;;;21.20;72.29;95608.72;10334736;28;96762;-60
2022/08/17 07:39:09;;;;;;;10.30;6.78;;;;;;;21.38;70.52;95615.78;10334853;28;96962;-60
2022/08/17 07:44:15;;;;;;;9.38;7.10;;;;;;;21.62;70.98;95614.78;10333360;28;97173;-59
2022/08/17 07:49:35;;;;;;;6.78;5.75;;;;;;;21.81;68.81;95625.25;10334761;28;97032;-60
2022/08/17 07:54:40;;;;;;;7.70;6.03;;;;;;;21.96;67.74;95612.28;10328479;28;97989;-60
2022/08/17 08:00:08;;;;;;;6.15;5.10;;;;;;;21.91;65.63;95624.69;10333334;28;96834;-59
2022/08/17 08:05:22;;;;;;;6.68;5.40;;;;;;;21.68;64.81;95635.09;10333862;28;96838;-59
2022/08/17 08:10:59;;;;;;;6.10;5.50;;;;;;;21.69;65.01;95639.38;10334810;28;96861;-60
2022/08/17 08:16:23;;;;;;;7.88;5.18;;;;;;;21.75;63.30;95639.50;10333633;28;96897;-60
2022/08/17 08:21:45;;;;;;;6.93;5.35;;;;;;;21.72;62.16;95634.63;10333941;28;97454;-60
2022/08/17 08:26:56;;;;;;;6.78;5.22;;;;;;;21.64;62.82;95630.47;10333548;28;97011;-59
2022/08/17 08:32:07;;;;;;;7.20;4.88;;;;;;;21.75;61.46;95642.97;10323470;28;96818;-59
2022/08/17 08:37:27;;;;;;;6.97;4.80;;;;;;;21.82;60.79;95640.19;10331564;28;96944;-59
2022/08/17 08:42:50;;;;;;;5.95;4.85;;;;;;;21.93;61.05;95633.22;10332881;28;97762;-59
2022/08/17 08:48:11;;;;;;;6.35;4.90;;;;;;;22.02;61.19;95621.16;10332399;28;96872;-59
2022/08/17 08:53:47;;;;;;;6.40;5.57;;;;;;;22.23;61.36;95620.53;10332059;28;97552;-59
2022/08/17 08:58:58;;;;;;;7.03;5.95;;;;;;;22.40;59.94;95611.81;10332368;28;96678;-63
2022/08/17 09:04:17;;;;;;;6.72;5.30;;;;;;;22.62;59.22;95631.41;10332128;28;97946;-62
2022/08/17 09:09:42;;;;;;;6.10;4.90;;;;;;;22.83;59.03;95621.13;10321872;28;96809;-60
2022/08/17 09:14:54;;;;;;;5.75;4.75;;;;;;;23.03;57.24;95631.31;10332971;28;96778;-59
2022/08/17 09:20:03;;;;;;;5.90;4.93;;;;;;;23.30;56.67;95636.03;10331687;28;96771;-59
2022/08/17 09:25:12;;;;;;;7.43;4.57;;;;;;;23.44;55.37;95623.19;10331569;28;96839;-60
2022/08/17 09:30:15;;;;;;;6.80;4.68;;;;;;;23.37;54.53;95616.16;10330484;28;98111;-59
2022/08/17 09:35:23;;;;;;;6.87;4.67;;;;;;;23.57;54.76;95612.19;10331082;28;96798;-61
2022/08/17 09:40:44;;;;;;;5.25;4.57;;;;;;;23.85;53.32;95621.09;10330725;28;96909;-59
2022/08/17 09:45:53;;;;;;;6.50;4.60;;;;;;;24.06;52.91;95615.00;10330868;28;96843;-60
2022/08/17 09:51:03;;;;;;;8.30;4.93;;;;;;;24.60;51.98;95608.13;10331114;28;97885;-60
2022/08/17 09:56:34;;;;;;;6.18;4.25;;;;;;;25.09;50.53;95599.22;10330942;28;96778;-59
2022/08/17 10:01:39;;;;;;;7.85;4.93;;;;;;;25.47;50.36;95595.47;10323774;28;98697;-60
2022/08/17 10:06:52;;;;;;;6.80;4.72;;;;;;;25.58;50.10;95604.41;10331171;28;97172;-60
2022/08/17 10:17:41;;;;;;;7.05;4.85;;;;;;;25.13;52.71;95582.44;10328191;28;96982;-60
2022/08/17 10:28:17;;;;;;;7.28;5.05;;;;;;;25.01;51.40;95584.47;10337424;28;96720;-60
2022/08/17 10:33:26;;;;;;;7.97;4.80;;;;;;;24.90;51.55;95580.09;10337174;28;96681;-60
2022/08/17 10:38:45;;;;;;;8.35;5.05;;;;;;;24.80;51.89;95562.91;10336739;28;97316;-59
2022/08/17 10:44:00;;;;;;;6.20;4.63;;;;;;;25.00;51.45;95551.59;10336391;28;96776;-60
2022/08/17 10:49:29;;;;;;;8.73;5.10;;;;;;;25.41;51.19;95545.72;10337456;28;98734;-61
2022/08/17 10:54:38;;;;;;;6.47;5.22;;;;;;;25.69;49.95;95538.41;10336605;28;97785;-59
2022/08/17 10:59:52;;;;;;;6.70;5.07;;;;;;;25.66;50.50;95537.06;10337106;28;96788;-60
2022/08/17 11:05:09;;;;;;;6.90;5.25;;;;;;;25.73;49.63;95528.78;10335547;28;97258;-60
2022/08/17 11:10:27;;;;;;;7.13;5.30;;;;;;;25.93;49.67;95526.19;10336173;28;98812;-60
2022/08/17 11:15:50;;;;;;;6.95;5.00;;;;;;;26.13;48.19;95524.66;10334352;28;98630;-60
2022/08/17 11:21:12;;;;;;;6.53;4.57;;;;;;;26.08;47.70;95528.09;10332266;28;96677;-60
2022/08/17 11:26:24;;;;;;;6.55;4.03;;;;;;;26.32;47.48;95523.09;10334122;28;98334;-60
2022/08/17 11:31:34;;;;;;;5.33;4.27;;;;;;;26.49;47.15;95514.03;10335350;28;97126;-60
2022/08/17 11:37:07;;;;;;;8.00;4.82;;;;;;;26.71;46.69;95503.88;10335103;28;96866;-60
2022/08/17 11:42:25;;;;;;;7.95;4.40;;;;;;;26.80;46.65;95506.03;10334500;28;96900;-59
2022/08/17 11:54:08;;;;;;;5.82;4.60;;;;;;;27.03;45.55;95476.00;10336164;28;96752;-59
2022/08/17 12:00:07;;;;;;;5.13;4.47;;;;;;;27.21;45.70;95477.28;10288682;28;96926;-60
2022/08/17 12:05:29;;;;;;;7.30;4.45;;;;;;;27.39;44.92;95470.56;10167185;28;97402;-60
2022/08/17 12:10:36;;;;;;;9.25;3.92;;;;;;;27.62;44.77;95445.00;10166505;28;96945;-60
2022/08/17 12:15:48;;;;;;;5.43;3.90;;;;;;;27.74;43.14;95447.38;10167209;28;97562;-61
2022/08/17 12:21:10;;;;;;;7.82;3.97;;;;;;;27.91;42.78;95444.34;10157776;28;97536;-60
2022/08/17 12:26:20;;;;;;;6.28;3.78;;;;;;;28.00;42.18;95442.66;10167900;28;98566;-60
2022/08/17 12:31:26;;;;;;;6.57;4.18;;;;;;;27.86;42.51;95429.06;10206902;28;96971;-60
2022/08/17 12:36:31;;;;;;;4.93;3.90;;;;;;;27.93;43.58;95425.28;10229607;28;97184;-60
2022/08/17 12:41:38;;;;;;;6.38;3.92;;;;;;;27.96;41.87;95420.16;10332620;28;97783;-60
2022/08/17 12:46:56;;;;;;;6.63;4.07;;;;;;;28.07;42.06;95407.44;10332623;28;96846;-60
2022/08/17 12:52:12;;;;;;;4.88;3.85;;;;;;;28.23;41.12;95403.56;10332732;28;97358;-61
2022/08/17 12:57:18;;;;;;;7.93;4.57;;;;;;;28.37;42.26;95393.00;10332811;28;96703;-60
2022/08/17 13:02:32;;;;;;;5.40;3.67;;;;;;;28.48;42.26;95384.88;10331342;28;96907;-60
2022/08/17 13:07:41;;;;;;;7.57;4.22;;;;;;;28.53;41.96;95369.53;10331903;28;96921;-60
2022/08/17 13:12:44;;;;;;;5.38;3.70;;;;;;;28.60;42.06;95361.94;10331697;28;97103;-60
2022/08/17 13:18:00;;;;;;;7.27;4.10;;;;;;;28.69;41.10;95345.97;10332496;28;96788;-60
2022/08/17 13:23:06;;;;;;;7.60;4.13;;;;;;;28.46;41.22;95350.22;10331286;28;96878;-60
2022/08/17 13:28:18;;;;;;;5.18;3.80;;;;;;;28.68;41.00;95362.38;10321517;28;98674;-61
2022/08/17 13:33:37;;;;;;;4.75;3.70;;;;;;;28.51;40.23;95373.56;10331286;28;98536;-60
2022/08/17 13:38:50;;;;;;;5.45;3.63;;;;;;;28.69;40.50;95382.78;10332207;28;96976;-60
2022/08/17 13:43:53;;;;;;;6.07;3.50;;;;;;;29.10;39.36;95377.00;10330970;28;96885;-60
2022/08/17 13:49:01;;;;;;;6.60;3.92;;;;;;;29.43;38.82;95369.09;10330981;28;96704;-60
2022/08/17 13:54:19;;;;;;;4.85;3.53;;;;;;;29.71;37.78;95370.91;10330116;28;96922;-60
2022/08/17 13:59:30;;;;;;;6.35;3.72;;;;;;;29.79;38.01;95376.72;10335163;28;96863;-60
2022/08/17 14:04:53;;;;;;;4.68;3.38;;;;;;;29.84;37.47;95384.72;10338224;28;96855;-60
2022/08/17 14:10:00;;;;;;;6.15;3.65;;;;;;;29.80;37.30;95379.13;10337750;28;97735;-60
2022/08/17 14:15:04;;;;;;;7.75;3.40;;;;;;;29.65;37.53;95360.50;10332217;28;96817;-60
2022/08/17 14:20:10;;;;;;;6.18;4.10;;;;;;;29.64;37.60;95361.56;10337451;28;96768;-60
2022/08/17 14:25:18;;;;;;;5.20;3.55;;;;;;;29.64;37.19;95373.13;10337103;28;96884;-60
2022/08/17 14:30:23;;;;;;;4.38;3.45;;;;;;;29.73;36.87;95363.31;10337776;28;96825;-60
2022/08/17 14:35:28;;;;;;;4.93;3.63;;;;;;;29.74;36.53;95348.75;10336998;28;97555;-60
2022/08/17 14:40:33;;;;;;;8.68;3.42;;;;;;;29.51;36.43;95339.66;10336957;28;96838;-60
2022/08/17 14:45:36;;;;;;;7.97;3.70;;;;;;;29.36;36.38;95343.31;10335299;28;96936;-61
2022/08/17 14:50:42;;;;;;;4.93;3.75;;;;;;;28.84;36.96;95350.38;10336258;28;96864;-60
2022/08/17 14:55:46;;;;;;;5.40;3.67;;;;;;;28.49;38.41;95368.47;10325548;28;96841;-60
2022/08/17 15:00:50;;;;;;;4.95;3.40;;;;;;;27.99;38.67;95375.81;10336093;28;97118;-60
2022/08/17 15:05:54;;;;;;;7.90;3.85;;;;;;;27.07;41.32;95374.41;10335985;28;97047;-62
2022/08/17 15:10:58;;;;;;;;;;;;;;;26.07;42.93;95351.72;10335965;28;98775;-60
2022/08/17 15:16:01;;;;;;;6.00;4.28;;;;;;;25.49;45.57;95336.66;10336166;28;97939;-60
2022/08/17 15:21:04;;;;;;;5.53;4.13;;;;;;;25.12;46.18;95356.31;10335788;28;96904;-60
2022/08/17 15:26:11;;;;;;;5.30;4.00;;;;;;;25.10;45.46;95313.03;10335618;28;96788;-60
2022/08/17 15:31:14;;;;;;;8.05;3.70;;;;;;;24.92;46.14;95305.47;10332584;28;96758;-60
2022/08/17 15:36:17;;;;;;;5.13;3.50;;;;;;;24.83;46.60;95332.69;10335432;28;97173;-59
2022/08/17 15:41:22;;;;;;;4.70;3.50;;;;;;;24.61;47.30;95358.69;10336977;28;96796;-60
2022/08/17 15:46:25;;;;;;;6.22;3.47;;;;;;;24.43;49.66;95410.66;10337243;28;96893;-60
2022/08/17 15:51:29;;;;;;;;;;;;;;;24.06;49.33;95438.91;10330930;28;96914;-60
2022/08/17 15:56:34;;;;;;;6.50;3.90;;;;;;;23.33;55.07;95487.13;10330092;28;97978;-59
2022/08/17 16:01:38;;;;;;;14.55;5.47;;;;;;;21.95;61.25;95554.00;10326392;28;98899;-60
2022/08/17 16:07:01;;;;;;;13.43;5.88;;;;;;;18.56;73.94;95648.25;10332545;28;96852;-60
2022/08/17 16:12:13;;;;;;;11.38;6.10;;;;;;;17.74;78.03;95686.53;10333599;28;97684;-61
2022/08/17 16:17:17;;;;;;;8.90;4.35;;;;;;;17.64;78.46;95709.94;10333345;28;96651;-60
2022/08/17 16:22:42;;;;;;;5.00;3.50;;;;;;;17.71;77.99;95684.31;10332911;28;96809;-60
2022/08/17 16:27:52;;;;;;;6.60;2.35;;;;;;;17.73;77.24;95649.75;10331407;28;96981;-60
2022/08/17 16:32:57;;;;;;;3.85;2.03;;;;;;;16.52;79.26;95601.47;10331350;28;96862;-60
2022/08/17 16:37:59;;;;;;;3.50;2.42;;;;;;;15.44;83.61;95552.06;10331488;28;96897;-62
2022/08/17 16:43:09;;;;;;;3.42;2.33;;;;;;;15.07;85.38;95546.16;10333095;28;97244;-62
2022/08/17 16:48:14;;;;;;;4.47;2.40;;;;;;;14.83;86.61;95525.56;10331757;28;98073;-62
2022/08/17 16:53:17;;;;;;;;;;;;;;;15.14;86.87;95567.25;10332660;28;96806;-60
2022/08/17 16:58:25;;;;;;;5.25;4.75;;;;;;;15.08;88.07;95589.88;10330901;28;97097;-62
2022/08/17 17:03:30;;;;;;;5.00;3.42;;;;;;;15.42;87.89;95648.78;10331529;28;96778;-61
2022/08/17 17:08:35;;;;;;;14.18;11.60;;;;;;;15.85;89.00;95682.91;10331696;28;98758;-60
2022/08/17 17:13:52;;;;;;;9.68;6.68;;;;;;;16.13;89.79;95737.38;10332088;28;96720;-61
2022/08/17 17:19:08;;;;;;;8.60;4.90;;;;;;;16.40;90.73;95779.69;10330219;28;96806;-62
2022/08/17 17:24:17;;;;;;;6.22;4.50;;;;;;;16.56;90.61;95760.91;10330284;28;96735;-60
2022/08/17 17:29:29;;;;;;;6.35;4.25;;;;;;;16.55;90.97;95784.81;10331663;28;96835;-62
2022/08/17 17:34:57;;;;;;;5.65;3.15;;;;;;;16.43;90.83;95818.84;10329778;28;97168;-60
2022/08/17 17:40:04;;;;;;;4.57;2.88;;;;;;;16.56;90.38;95821.53;10331541;28;98684;-60
2022/08/17 17:45:17;;;;;;;4.50;2.70;;;;;;;16.57;90.18;95809.16;10325130;28;96803;-61
2022/08/17 17:50:24;;;;;;;4.70;2.67;;;;;;;16.37;90.04;95749.25;10322077;28;96800;-63
2022/08/17 17:56:01;;;;;;;4.43;3.55;;;;;;;16.62;91.05;95791.78;10331858;28;96834;-62
2022/08/17 18:01:19;;;;;;;5.82;3.42;;;;;;;16.65;90.29;95800.28;10281600;28;97255;-61
2022/08/17 18:06:34;;;;;;;6.35;4.05;;;;;;;16.81;89.97;95818.44;10285036;28;96891;-59
2022/08/17 18:12:01;;;;;;;10.43;4.18;;;;;;;16.94;90.49;95815.06;10279929;28;96947;-61
2022/08/17 18:17:06;;;;;;;5.43;3.70;;;;;;;17.03;89.84;95818.31;10278729;28;97082;-61
2022/08/17 18:22:16;;;;;;;8.30;4.28;;;;;;;17.00;89.23;95803.69;10283518;28;97909;-61
2022/08/17 18:27:23;;;;;;;4.53;3.67;;;;;;;16.97;89.54;95825.19;10284188;28;98689;-61
2022/08/17 18:32:34;;;;;;;4.78;3.58;;;;;;;16.83;89.78;95826.97;10275515;28;98604;-61
2022/08/17 18:37:41;;;;;;;7.57;5.95;;;;;;;16.81;89.93;95848.28;10324849;28;98267;-60
2022/08/17 18:42:46;;;;;;;5.85;4.85;;;;;;;16.97;89.34;95872.69;10328169;28;97577;-60
2022/08/17 18:47:54;;;;;;;7.18;4.80;;;;;;;16.85;89.86;95874.25;10335210;28;97166;-60
2022/08/17 18:53:20;;;;;;;6.88;4.63;;;;;;;16.85;90.40;95890.91;10336482;28;96778;-60
2022/08/17 18:58:28;;;;;;;7.43;5.05;;;;;;;16.86;89.66;95887.25;10330544;28;98115;-60
2022/08/17 19:03:42;;;;;;;6.93;4.68;;;;;;;16.90;89.94;95893.78;10334879;28;97537;-60
2022/08/17 19:08:45;;;;;;;6.43;5.10;;;;;;;16.91;89.60;95898.03;10334429;28;97215;-60
2022/08/17 19:13:54;;;;;;;5.35;4.32;;;;;;;16.89;89.06;95881.59;10335777;28;96815;-60
2022/08/17 19:19:04;;;;;;;6.47;4.40;;;;;;;16.90;89.35;95904.34;10335268;28;97860;-59
2022/08/17 19:24:18;;;;;;;6.35;4.82;;;;;;;16.93;88.98;95882.00;10335038;28;96887;-59
2022/08/17 19:29:25;;;;;;;6.25;4.40;;;;;;;16.89;89.18;95880.78;10344871;28;97207;-61
2022/08/17 19:34:32;;;;;;;7.10;4.47;;;;;;;16.91;89.03;95905.94;10345341;28;97314;-59
2022/08/17 19:39:43;;;;;;;6.32;4.20;;;;;;;16.88;89.46;95893.13;10331851;28;97681;-61
2022/08/17 19:44:55;;;;;;;5.40;4.22;;;;;;;16.79;88.89;95903.03;10330722;28;96820;-60
2022/08/17 19:50:08;;;;;;;4.40;3.97;;;;;;;16.74;88.65;95896.69;10333927;28;97884;-61
2022/08/17 19:55:20;;;;;;;5.30;4.10;;;;;;;16.71;88.87;95897.06;10332541;28;96722;-60
2022/08/17 20:00:24;;;;;;;4.72;3.65;;;;;;;16.60;88.34;95880.78;10334256;28;96889;-59
2022/08/17 20:05:32;;;;;;;5.50;4.07;;;;;;;16.60;87.95;95890.53;10334462;28;96843;-59
2022/08/17 20:10:59;;;;;;;5.22;4.10;;;;;;;16.57;88.29;95886.47;10333672;28;97151;-59
2022/08/17 20:16:03;;;;;;;6.43;4.38;;;;;;;16.53;87.69;95879.94;10333852;28;97121;-60
2022/08/17 20:21:15;;;;;;;6.15;3.38;;;;;;;16.58;87.59;95906.53;10333740;28;96756;-60
2022/08/17 20:26:26;;;;;;;5.22;3.95;;;;;;;16.62;87.42;95902.53;10332451;28;96880;-59
2022/08/17 20:31:44;;;;;;;5.50;3.85;;;;;;;16.63;87.24;95885.69;10333795;28;96755;-59
2022/08/17 20:37:00;;;;;;;6.20;4.10;;;;;;;16.68;87.39;95885.09;10327293;28;96880;-59
2022/08/17 20:42:07;;;;;;;6.90;4.40;;;;;;;16.72;87.21;95885.53;10330132;28;97220;-59
2022/08/17 20:47:18;;;;;;;6.35;4.43;;;;;;;16.71;87.08;95889.16;10327505;28;96942;-60
2022/08/17 20:52:46;;;;;;;5.43;3.65;;;;;;;16.70;87.06;95879.63;10327391;28;98278;-60
2022/08/17 20:57:49;;;;;;;6.25;4.95;;;;;;;16.71;86.75;95883.88;10328979;28;96870;-60
2022/08/17 21:03:30;;;;;;;8.38;4.78;;;;;;;16.71;87.60;95883.88;10329412;28;97016;-59
2022/08/17 21:09:28;;;;;;;5.13;4.13;;;;;;;16.70;87.24;95877.00;10328979;28;96766;-59
2022/08/17 21:14:40;;;;;;;4.70;3.50;;;;;;;16.65;87.12;95867.03;10327961;28;96831;-59
2022/08/17 21:19:56;;;;;;;5.85;3.40;;;;;;;16.63;86.58;95856.66;10329421;28;97000;-60
2022/08/17 21:25:33;;;;;;;3.80;2.97;;;;;;;16.63;86.21;95845.31;10327620;28;96958;-59
2022/08/17 21:30:46;;;;;;;3.60;3.30;;;;;;;16.59;86.25;95866.00;10330425;28;96778;-59
2022/08/17 21:35:53;;;;;;;3.47;2.77;;;;;;;16.66;85.91;95881.03;10327570;28;96963;-59
2022/08/17 21:41:01;;;;;;;5.65;3.50;;;;;;;16.72;85.81;95886.34;10318440;28;96793;-59
2022/08/17 21:46:08;;;;;;;4.35;2.83;;;;;;;16.75;85.58;95890.44;10327538;28;96737;-59
2022/08/17 21:51:16;;;;;;;5.63;3.00;;;;;;;16.75;85.57;95879.91;10326098;28;96936;-59
2022/08/17 21:56:29;;;;;;;3.65;2.47;;;;;;;16.76;84.97;95886.78;10320866;28;96887;-61
2022/08/17 22:01:34;;;;;;;5.88;2.90;;;;;;;16.69;84.54;95878.00;10319711;28;96840;-58
2022/08/17 22:06:39;;;;;;;4.57;3.22;;;;;;;16.62;85.13;95876.16;10310134;28;96757;-59
2022/08/17 22:12:03;;;;;;;4.22;3.00;;;;;;;16.52;84.96;95865.16;10323199;28;96825;-59
2022/08/17 22:17:14;;;;;;;5.20;2.90;;;;;;;16.46;85.39;95868.53;10316677;28;96888;-60
2022/08/17 22:22:27;;;;;;;4.43;3.10;;;;;;;16.46;85.15;95879.09;10333596;28;96754;-58
2022/08/17 22:27:52;;;;;;;4.63;3.33;;;;;;;16.52;85.48;95886.25;10321959;28;97061;-60
2022/08/17 22:32:56;;;;;;;6.28;3.20;;;;;;;16.61;84.61;95902.72;10311553;28;97100;-59
2022/08/17 22:38:28;;;;;;;5.73;3.63;;;;;;;16.62;85.31;95906.97;10332579;28;96935;-60
2022/08/17 22:43:38;;;;;;;5.93;3.58;;;;;;;16.45;85.27;95906.47;10341012;28;97073;-59
2022/08/17 22:48:49;;;;;;;5.90;3.60;;;;;;;16.34;85.82;95909.63;10316362;28;98982;-59
2022/08/17 22:59:32;;;;;;;6.93;3.70;;;;;;;16.23;85.92;95909.16;10319210;28;97425;-61
2022/08/17 23:04:38;;;;;;;6.97;3.50;;;;;;;16.21;85.29;95910.34;10334283;28;97513;-58
2022/08/17 23:09:41;;;;;;;4.20;3.45;;;;;;;16.36;85.78;95910.25;10325487;28;98864;-59
2022/08/17 23:14:48;;;;;;;5.45;3.90;;;;;;;16.38;86.04;95911.69;10322329;28;96820;-59
2022/08/17 23:19:51;;;;;;;6.90;4.10;;;;;;;16.43;85.80;95919.84;10321492;28;96721;-59
2022/08/17 23:24:54;;;;;;;7.88;4.05;;;;;;;16.37;86.23;95914.53;10327496;28;96877;-60
2022/08/17 23:29:58;;;;;;;6.10;3.72;;;;;;;16.42;86.18;95907.66;10322994;28;97652;-60
2022/08/17 23:35:01;;;;;;;5.90;4.35;;;;;;;16.29;86.29;95904.91;10332914;28;97299;-64
2022/08/17 23:40:05;;;;;;;6.00;4.05;;;;;;;16.19;86.82;95896.53;10328815;28;97987;-58
2022/08/17 23:45:10;;;;;;;7.00;4.53;;;;;;;16.14;86.80;95885.78;10328014;28;96858;-60
2022/08/17 23:50:13;;;;;;;5.50;3.78;;;;;;;16.12;87.15;95869.31;10318311;28;97029;-60
2022/08/17 23:55:16;;;;;;;5.35;3.92;;;;;;;16.12;87.16;95864.88;10323461;28;97182;-59
